sensor_id;sensor_type;location;lat;lon;timestamp;P1;durP1;ratioP1;P2;durP2;ratioP2
16510;SDS011;8368;48.772;8.754;2024-03-29T00:02:00;1.47;;;1.23;;
16510;SDS011;8368;48.772;8.754;2024-03-29T00:04:26;2.77;;;1.60;;
16510;SDS011;8368;48.772;8.754;2024-03-29T00:06:51;4.07;;;1.27;;
16510;SDS011;8368;48.772;8.754;2024-03-29T00:09:17;2.60;;;1.40;;
16510;SDS011;8368;48.772;8.754;2024-03-29T00:11:43;3.63;;;1.53;;
16510;SDS011;8368;48.772;8.754;2024-03-29T00:14:08;1.13;;;1.13;;
16510;SDS011;8368;48.772;8.754;2024-03-29T00:16:34;4.53;;;1.50;;
16510;SDS011;8368;48.772;8.754;2024-03-29T00:18:59;1.57;;;1.47;;
16510;SDS011;8368;48.772;8.754;2024-03-29T00:21:25;1.63;;;1.53;;
16510;SDS011;8368;48.772;8.754;2024-03-29T00:23:50;2.97;;;1.60;;
16510;SDS011;8368;48.772;8.754;2024-03-29T00:26:16;2.30;;;1.67;;
16510;SDS011;8368;48.772;8.754;2024-03-29T00:28:42;1.60;;;1.50;;
16510;SDS011;8368;48.772;8.754;2024-03-29T00:31:07;1.60;;;1.50;;
16510;SDS011;8368;48.772;8.754;2024-03-29T00:33:33;1.90;;;1.47;;
16510;SDS011;8368;48.772;8.754;2024-03-29T00:35:59;1.40;;;1.30;;
16510;SDS011;8368;48.772;8.754;2024-03-29T00:38:25;2.80;;;1.43;;
16510;SDS011;8368;48.772;8.754;2024-03-29T00:40:50;1.73;;;1.30;;
16510;SDS011;8368;48.772;8.754;2024-03-29T00:43:16;2.60;;;1.50;;
16510;SDS011;8368;48.772;8.754;2024-03-29T00:45:42;2.77;;;1.40;;
16510;SDS011;8368;48.772;8.754;2024-03-29T00:48:07;1.37;;;1.23;;
16510;SDS011;8368;48.772;8.754;2024-03-29T00:50:33;3.00;;;1.17;;
16510;SDS011;8368;48.772;8.754;2024-03-29T00:52:59;2.40;;;1.20;;
16510;SDS011;8368;48.772;8.754;2024-03-29T00:55:25;2.40;;;1.77;;
16510;SDS011;8368;48.772;8.754;2024-03-29T00:57:50;4.73;;;1.67;;
16510;SDS011;8368;48.772;8.754;2024-03-29T01:00:16;2.43;;;1.37;;
16510;SDS011;8368;48.772;8.754;2024-03-29T01:02:41;2.40;;;1.40;;
16510;SDS011;8368;48.772;8.754;2024-03-29T01:05:07;1.33;;;1.23;;
16510;SDS011;8368;48.772;8.754;2024-03-29T01:07:33;2.87;;;1.07;;
16510;SDS011;8368;48.772;8.754;2024-03-29T01:09:59;1.00;;;1.00;;
16510;SDS011;8368;48.772;8.754;2024-03-29T01:12:25;3.03;;;1.30;;
16510;SDS011;8368;48.772;8.754;2024-03-29T01:14:51;1.47;;;1.33;;
16510;SDS011;8368;48.772;8.754;2024-03-29T01:17:16;1.20;;;1.10;;
16510;SDS011;8368;48.772;8.754;2024-03-29T01:19:42;1.43;;;1.40;;
16510;SDS011;8368;48.772;8.754;2024-03-29T01:22:07;1.17;;;1.07;;
16510;SDS011;8368;48.772;8.754;2024-03-29T01:24:33;1.50;;;1.40;;
16510;SDS011;8368;48.772;8.754;2024-03-29T01:26:59;1.03;;;1.03;;
16510;SDS011;8368;48.772;8.754;2024-03-29T01:29:24;2.33;;;1.17;;
16510;SDS011;8368;48.772;8.754;2024-03-29T01:31:50;2.60;;;1.10;;
16510;SDS011;8368;48.772;8.754;2024-03-29T01:34:15;6.50;;;1.40;;
16510;SDS011;8368;48.772;8.754;2024-03-29T01:36:41;1.37;;;1.20;;
16510;SDS011;8368;48.772;8.754;2024-03-29T01:39:08;1.50;;;1.40;;
16510;SDS011;8368;48.772;8.754;2024-03-29T01:41:36;4.03;;;1.17;;
16510;SDS011;8368;48.772;8.754;2024-03-29T01:44:01;1.30;;;1.30;;
16510;SDS011;8368;48.772;8.754;2024-03-29T01:46:27;1.03;;;1.03;;
16510;SDS011;8368;48.772;8.754;2024-03-29T01:48:53;1.00;;;0.90;;
16510;SDS011;8368;48.772;8.754;2024-03-29T01:51:22;1.13;;;1.13;;
16510;SDS011;8368;48.772;8.754;2024-03-29T01:53:49;3.43;;;1.40;;
16510;SDS011;8368;48.772;8.754;2024-03-29T01:56:16;3.10;;;1.73;;
16510;SDS011;8368;48.772;8.754;2024-03-29T01:58:42;1.40;;;1.10;;
16510;SDS011;8368;48.772;8.754;2024-03-29T02:01:10;3.47;;;1.30;;
16510;SDS011;8368;48.772;8.754;2024-03-29T02:03:37;1.57;;;0.90;;
16510;SDS011;8368;48.772;8.754;2024-03-29T02:06:04;1.40;;;1.30;;
16510;SDS011;8368;48.772;8.754;2024-03-29T02:08:32;1.53;;;1.00;;
16510;SDS011;8368;48.772;8.754;2024-03-29T02:10:58;1.53;;;1.10;;
16510;SDS011;8368;48.772;8.754;2024-03-29T02:13:24;1.20;;;1.10;;
16510;SDS011;8368;48.772;8.754;2024-03-29T02:15:50;3.33;;;1.40;;
16510;SDS011;8368;48.772;8.754;2024-03-29T02:18:15;1.47;;;1.37;;
16510;SDS011;8368;48.772;8.754;2024-03-29T02:20:41;2.03;;;1.70;;
16510;SDS011;8368;48.772;8.754;2024-03-29T02:23:08;3.30;;;1.30;;
16510;SDS011;8368;48.772;8.754;2024-03-29T02:25:36;1.40;;;1.30;;
16510;SDS011;8368;48.772;8.754;2024-03-29T02:28:02;1.37;;;1.27;;
16510;SDS011;8368;48.772;8.754;2024-03-29T02:30:28;1.23;;;1.20;;
16510;SDS011;8368;48.772;8.754;2024-03-29T02:32:55;1.77;;;1.37;;
16510;SDS011;8368;48.772;8.754;2024-03-29T02:35:21;1.10;;;1.10;;
16510;SDS011;8368;48.772;8.754;2024-03-29T02:37:47;1.40;;;1.30;;
16510;SDS011;8368;48.772;8.754;2024-03-29T02:40:12;1.40;;;1.30;;
16510;SDS011;8368;48.772;8.754;2024-03-29T02:42:38;1.10;;;1.00;;
16510;SDS011;8368;48.772;8.754;2024-03-29T02:45:03;1.20;;;1.13;;
16510;SDS011;8368;48.772;8.754;2024-03-29T02:47:29;2.17;;;1.33;;
16510;SDS011;8368;48.772;8.754;2024-03-29T02:49:55;2.50;;;1.20;;
16510;SDS011;8368;48.772;8.754;2024-03-29T02:52:20;1.53;;;1.10;;
16510;SDS011;8368;48.772;8.754;2024-03-29T02:54:46;1.63;;;1.23;;
16510;SDS011;8368;48.772;8.754;2024-03-29T02:57:12;2.30;;;1.13;;
16510;SDS011;8368;48.772;8.754;2024-03-29T02:59:39;2.70;;;1.13;;
16510;SDS011;8368;48.772;8.754;2024-03-29T03:02:05;1.63;;;1.20;;
16510;SDS011;8368;48.772;8.754;2024-03-29T03:04:30;0.70;;;0.70;;
16510;SDS011;8368;48.772;8.754;2024-03-29T03:06:56;2.53;;;1.20;;
16510;SDS011;8368;48.772;8.754;2024-03-29T03:09:41;2.17;;;1.10;;
16510;SDS011;8368;48.772;8.754;2024-03-29T03:12:25;1.20;;;1.10;;
16510;SDS011;8368;48.772;8.754;2024-03-29T03:14:51;2.57;;;1.20;;
16510;SDS011;8368;48.772;8.754;2024-03-29T03:17:17;1.80;;;1.17;;
16510;SDS011;8368;48.772;8.754;2024-03-29T03:19:43;1.90;;;0.80;;
16510;SDS011;8368;48.772;8.754;2024-03-29T03:22:08;1.13;;;1.00;;
16510;SDS011;8368;48.772;8.754;2024-03-29T03:24:34;1.00;;;1.00;;
16510;SDS011;8368;48.772;8.754;2024-03-29T03:26:59;1.10;;;1.10;;
16510;SDS011;8368;48.772;8.754;2024-03-29T03:29:25;0.63;;;0.63;;
16510;SDS011;8368;48.772;8.754;2024-03-29T03:31:50;0.80;;;0.80;;
16510;SDS011;8368;48.772;8.754;2024-03-29T03:34:16;0.80;;;0.80;;
16510;SDS011;8368;48.772;8.754;2024-03-29T03:36:41;1.03;;;0.87;;
16510;SDS011;8368;48.772;8.754;2024-03-29T03:39:07;0.93;;;0.67;;
16510;SDS011;8368;48.772;8.754;2024-03-29T03:41:32;1.13;;;1.13;;
16510;SDS011;8368;48.772;8.754;2024-03-29T03:43:58;1.70;;;1.03;;
16510;SDS011;8368;48.772;8.754;2024-03-29T03:46:23;1.20;;;1.13;;
16510;SDS011;8368;48.772;8.754;2024-03-29T03:48:49;4.03;;;1.40;;
16510;SDS011;8368;48.772;8.754;2024-03-29T03:51:15;1.10;;;1.10;;
16510;SDS011;8368;48.772;8.754;2024-03-29T03:53:41;1.17;;;1.00;;
16510;SDS011;8368;48.772;8.754;2024-03-29T03:56:06;0.87;;;0.87;;
16510;SDS011;8368;48.772;8.754;2024-03-29T03:58:32;1.23;;;1.13;;
16510;SDS011;8368;48.772;8.754;2024-03-29T04:01:03;1.40;;;1.10;;
16510;SDS011;8368;48.772;8.754;2024-03-29T04:03:29;1.10;;;0.80;;
16510;SDS011;8368;48.772;8.754;2024-03-29T04:05:55;1.23;;;1.20;;
16510;SDS011;8368;48.772;8.754;2024-03-29T04:08:20;1.10;;;1.10;;
16510;SDS011;8368;48.772;8.754;2024-03-29T04:10:46;0.90;;;0.90;;
16510;SDS011;8368;48.772;8.754;2024-03-29T04:13:11;1.03;;;1.00;;
16510;SDS011;8368;48.772;8.754;2024-03-29T04:15:37;1.27;;;1.10;;
16510;SDS011;8368;48.772;8.754;2024-03-29T04:18:02;0.90;;;0.90;;
16510;SDS011;8368;48.772;8.754;2024-03-29T04:20:28;0.80;;;0.80;;
16510;SDS011;8368;48.772;8.754;2024-03-29T04:22:53;0.90;;;0.90;;
16510;SDS011;8368;48.772;8.754;2024-03-29T04:25:19;1.27;;;0.93;;
16510;SDS011;8368;48.772;8.754;2024-03-29T04:27:44;0.90;;;0.90;;
16510;SDS011;8368;48.772;8.754;2024-03-29T04:30:10;2.20;;;1.20;;
16510;SDS011;8368;48.772;8.754;2024-03-29T04:32:36;1.00;;;0.90;;
16510;SDS011;8368;48.772;8.754;2024-03-29T04:35:02;0.87;;;0.67;;
16510;SDS011;8368;48.772;8.754;2024-03-29T04:37:27;2.57;;;1.50;;
16510;SDS011;8368;48.772;8.754;2024-03-29T04:39:53;2.93;;;1.10;;
16510;SDS011;8368;48.772;8.754;2024-03-29T04:42:18;1.93;;;1.20;;
16510;SDS011;8368;48.772;8.754;2024-03-29T04:44:44;2.00;;;1.63;;
16510;SDS011;8368;48.772;8.754;2024-03-29T04:47:10;1.67;;;1.20;;
16510;SDS011;8368;48.772;8.754;2024-03-29T04:49:36;0.80;;;0.80;;
16510;SDS011;8368;48.772;8.754;2024-03-29T04:52:02;1.10;;;0.90;;
16510;SDS011;8368;48.772;8.754;2024-03-29T04:54:29;0.93;;;0.90;;
16510;SDS011;8368;48.772;8.754;2024-03-29T04:56:55;0.97;;;0.97;;
16510;SDS011;8368;48.772;8.754;2024-03-29T04:59:20;1.60;;;1.10;;
16510;SDS011;8368;48.772;8.754;2024-03-29T05:01:46;1.73;;;0.80;;
16510;SDS011;8368;48.772;8.754;2024-03-29T05:04:16;0.80;;;0.80;;
16510;SDS011;8368;48.772;8.754;2024-03-29T05:06:44;0.70;;;0.70;;
16510;SDS011;8368;48.772;8.754;2024-03-29T05:09:10;2.40;;;0.80;;
16510;SDS011;8368;48.772;8.754;2024-03-29T05:11:36;0.73;;;0.60;;
16510;SDS011;8368;48.772;8.754;2024-03-29T05:14:02;0.77;;;0.77;;
16510;SDS011;8368;48.772;8.754;2024-03-29T05:16:29;1.10;;;0.90;;
16510;SDS011;8368;48.772;8.754;2024-03-29T05:18:54;0.87;;;0.87;;
16510;SDS011;8368;48.772;8.754;2024-03-29T05:21:20;0.97;;;0.97;;
16510;SDS011;8368;48.772;8.754;2024-03-29T05:23:45;0.80;;;0.80;;
16510;SDS011;8368;48.772;8.754;2024-03-29T05:26:11;0.70;;;0.70;;
16510;SDS011;8368;48.772;8.754;2024-03-29T05:28:36;1.13;;;0.70;;
16510;SDS011;8368;48.772;8.754;2024-03-29T05:31:12;1.87;;;0.90;;
16510;SDS011;8368;48.772;8.754;2024-03-29T05:33:39;0.70;;;0.70;;
16510;SDS011;8368;48.772;8.754;2024-03-29T05:36:06;0.67;;;0.67;;
16510;SDS011;8368;48.772;8.754;2024-03-29T05:38:33;0.60;;;0.60;;
16510;SDS011;8368;48.772;8.754;2024-03-29T05:40:59;0.70;;;0.70;;
16510;SDS011;8368;48.772;8.754;2024-03-29T05:43:24;0.67;;;0.67;;
16510;SDS011;8368;48.772;8.754;2024-03-29T05:45:52;0.70;;;0.70;;
16510;SDS011;8368;48.772;8.754;2024-03-29T05:48:18;1.33;;;0.73;;
16510;SDS011;8368;48.772;8.754;2024-03-29T05:50:44;0.60;;;0.60;;
16510;SDS011;8368;48.772;8.754;2024-03-29T05:53:10;0.90;;;0.90;;
16510;SDS011;8368;48.772;8.754;2024-03-29T05:55:35;0.90;;;0.90;;
16510;SDS011;8368;48.772;8.754;2024-03-29T05:58:01;0.90;;;0.90;;
16510;SDS011;8368;48.772;8.754;2024-03-29T06:00:27;0.60;;;0.60;;
16510;SDS011;8368;48.772;8.754;2024-03-29T06:02:53;0.53;;;0.53;;
16510;SDS011;8368;48.772;8.754;2024-03-29T06:05:19;1.90;;;0.70;;
16510;SDS011;8368;48.772;8.754;2024-03-29T06:07:45;0.97;;;0.97;;
16510;SDS011;8368;48.772;8.754;2024-03-29T06:10:11;0.77;;;0.77;;
16510;SDS011;8368;48.772;8.754;2024-03-29T06:12:36;0.70;;;0.70;;
16510;SDS011;8368;48.772;8.754;2024-03-29T06:15:05;2.73;;;0.80;;
16510;SDS011;8368;48.772;8.754;2024-03-29T06:17:50;1.17;;;0.67;;
16510;SDS011;8368;48.772;8.754;2024-03-29T06:20:16;0.83;;;0.70;;
16510;SDS011;8368;48.772;8.754;2024-03-29T06:22:41;0.63;;;0.50;;
16510;SDS011;8368;48.772;8.754;2024-03-29T06:25:07;0.60;;;0.60;;
16510;SDS011;8368;48.772;8.754;2024-03-29T06:27:34;0.60;;;0.60;;
16510;SDS011;8368;48.772;8.754;2024-03-29T06:30:01;0.80;;;0.70;;
16510;SDS011;8368;48.772;8.754;2024-03-29T06:32:28;0.50;;;0.50;;
16510;SDS011;8368;48.772;8.754;2024-03-29T06:34:54;0.50;;;0.50;;
16510;SDS011;8368;48.772;8.754;2024-03-29T06:37:19;0.70;;;0.70;;
16510;SDS011;8368;48.772;8.754;2024-03-29T06:39:50;0.90;;;0.90;;
16510;SDS011;8368;48.772;8.754;2024-03-29T06:42:19;0.90;;;0.90;;
16510;SDS011;8368;48.772;8.754;2024-03-29T06:44:44;0.80;;;0.80;;
16510;SDS011;8368;48.772;8.754;2024-03-29T06:47:10;0.90;;;0.90;;
16510;SDS011;8368;48.772;8.754;2024-03-29T06:49:36;0.80;;;0.80;;
16510;SDS011;8368;48.772;8.754;2024-03-29T06:52:02;2.30;;;1.00;;
16510;SDS011;8368;48.772;8.754;2024-03-29T06:54:28;0.87;;;0.83;;
16510;SDS011;8368;48.772;8.754;2024-03-29T06:56:54;0.90;;;0.90;;
16510;SDS011;8368;48.772;8.754;2024-03-29T06:59:20;0.83;;;0.83;;
16510;SDS011;8368;48.772;8.754;2024-03-29T07:01:46;0.70;;;0.70;;
16510;SDS011;8368;48.772;8.754;2024-03-29T07:04:21;1.07;;;0.70;;
16510;SDS011;8368;48.772;8.754;2024-03-29T07:06:48;0.63;;;0.63;;
16510;SDS011;8368;48.772;8.754;2024-03-29T07:09:16;0.90;;;0.90;;
16510;SDS011;8368;48.772;8.754;2024-03-29T07:11:43;0.57;;;0.57;;
16510;SDS011;8368;48.772;8.754;2024-03-29T07:14:10;0.80;;;0.80;;
16510;SDS011;8368;48.772;8.754;2024-03-29T07:16:35;0.93;;;0.93;;
16510;SDS011;8368;48.772;8.754;2024-03-29T07:19:01;1.53;;;0.63;;
16510;SDS011;8368;48.772;8.754;2024-03-29T07:21:28;0.80;;;0.80;;
16510;SDS011;8368;48.772;8.754;2024-03-29T07:23:53;0.70;;;0.70;;
16510;SDS011;8368;48.772;8.754;2024-03-29T07:26:19;1.10;;;1.00;;
16510;SDS011;8368;48.772;8.754;2024-03-29T07:28:44;1.03;;;1.00;;
16510;SDS011;8368;48.772;8.754;2024-03-29T07:31:10;1.40;;;0.83;;
16510;SDS011;8368;48.772;8.754;2024-03-29T07:33:36;0.63;;;0.63;;
16510;SDS011;8368;48.772;8.754;2024-03-29T07:36:02;1.90;;;0.70;;
16510;SDS011;8368;48.772;8.754;2024-03-29T07:38:28;3.23;;;0.83;;
16510;SDS011;8368;48.772;8.754;2024-03-29T07:40:54;0.80;;;0.80;;
16510;SDS011;8368;48.772;8.754;2024-03-29T07:43:21;1.63;;;1.30;;
16510;SDS011;8368;48.772;8.754;2024-03-29T07:45:47;6.90;;;3.37;;
16510;SDS011;8368;48.772;8.754;2024-03-29T07:48:14;2.03;;;1.73;;
16510;SDS011;8368;48.772;8.754;2024-03-29T07:50:41;3.50;;;1.37;;
16510;SDS011;8368;48.772;8.754;2024-03-29T07:53:08;8.17;;;5.27;;
16510;SDS011;8368;48.772;8.754;2024-03-29T07:55:34;6.17;;;4.20;;
16510;SDS011;8368;48.772;8.754;2024-03-29T07:58:01;2.80;;;2.60;;
16510;SDS011;8368;48.772;8.754;2024-03-29T08:00:26;1.87;;;1.50;;
16510;SDS011;8368;48.772;8.754;2024-03-29T08:02:52;2.90;;;1.30;;
16510;SDS011;8368;48.772;8.754;2024-03-29T08:05:19;2.20;;;1.40;;
16510;SDS011;8368;48.772;8.754;2024-03-29T08:07:46;1.80;;;1.20;;
16510;SDS011;8368;48.772;8.754;2024-03-29T08:10:12;2.33;;;1.00;;
16510;SDS011;8368;48.772;8.754;2024-03-29T08:12:38;1.30;;;1.20;;
16510;SDS011;8368;48.772;8.754;2024-03-29T08:15:03;1.90;;;1.50;;
16510;SDS011;8368;48.772;8.754;2024-03-29T08:17:29;1.20;;;1.20;;
16510;SDS011;8368;48.772;8.754;2024-03-29T08:19:55;1.00;;;1.00;;
16510;SDS011;8368;48.772;8.754;2024-03-29T08:22:21;1.60;;;1.00;;
16510;SDS011;8368;48.772;8.754;2024-03-29T08:24:46;1.80;;;1.10;;
16510;SDS011;8368;48.772;8.754;2024-03-29T08:27:12;3.27;;;1.40;;
16510;SDS011;8368;48.772;8.754;2024-03-29T08:29:38;1.00;;;1.00;;
16510;SDS011;8368;48.772;8.754;2024-03-29T08:32:05;1.40;;;1.30;;
16510;SDS011;8368;48.772;8.754;2024-03-29T08:34:32;1.50;;;1.13;;
16510;SDS011;8368;48.772;8.754;2024-03-29T08:37:00;2.47;;;1.60;;
16510;SDS011;8368;48.772;8.754;2024-03-29T08:39:27;1.37;;;1.10;;
16510;SDS011;8368;48.772;8.754;2024-03-29T08:41:53;2.53;;;2.33;;
16510;SDS011;8368;48.772;8.754;2024-03-29T08:44:19;2.23;;;2.03;;
16510;SDS011;8368;48.772;8.754;2024-03-29T08:46:44;2.00;;;1.90;;
16510;SDS011;8368;48.772;8.754;2024-03-29T08:49:10;1.90;;;1.80;;
16510;SDS011;8368;48.772;8.754;2024-03-29T08:51:36;2.03;;;1.93;;
16510;SDS011;8368;48.772;8.754;2024-03-29T08:54:01;3.27;;;2.40;;
16510;SDS011;8368;48.772;8.754;2024-03-29T08:56:30;2.40;;;2.07;;
16510;SDS011;8368;48.772;8.754;2024-03-29T08:59:01;1.70;;;1.53;;
16510;SDS011;8368;48.772;8.754;2024-03-29T09:01:33;1.93;;;1.83;;
16510;SDS011;8368;48.772;8.754;2024-03-29T09:04:01;1.13;;;1.10;;
16510;SDS011;8368;48.772;8.754;2024-03-29T09:06:27;1.00;;;1.00;;
16510;SDS011;8368;48.772;8.754;2024-03-29T09:08:52;1.93;;;1.13;;
16510;SDS011;8368;48.772;8.754;2024-03-29T09:11:18;1.10;;;1.10;;
16510;SDS011;8368;48.772;8.754;2024-03-29T09:13:43;1.30;;;1.30;;
16510;SDS011;8368;48.772;8.754;2024-03-29T09:16:09;1.17;;;1.07;;
16510;SDS011;8368;48.772;8.754;2024-03-29T09:18:34;0.87;;;0.87;;
16510;SDS011;8368;48.772;8.754;2024-03-29T09:21:00;2.80;;;1.00;;
16510;SDS011;8368;48.772;8.754;2024-03-29T09:23:26;1.17;;;1.10;;
16510;SDS011;8368;48.772;8.754;2024-03-29T09:25:56;1.70;;;0.97;;
16510;SDS011;8368;48.772;8.754;2024-03-29T09:28:22;1.40;;;1.40;;
16510;SDS011;8368;48.772;8.754;2024-03-29T09:30:48;1.67;;;0.93;;
16510;SDS011;8368;48.772;8.754;2024-03-29T09:33:13;1.10;;;1.10;;
16510;SDS011;8368;48.772;8.754;2024-03-29T09:35:39;1.27;;;1.13;;
16510;SDS011;8368;48.772;8.754;2024-03-29T09:38:05;0.80;;;0.80;;
16510;SDS011;8368;48.772;8.754;2024-03-29T09:40:31;1.50;;;1.40;;
16510;SDS011;8368;48.772;8.754;2024-03-29T09:42:57;1.10;;;1.10;;
16510;SDS011;8368;48.772;8.754;2024-03-29T09:45:30;1.77;;;1.67;;
16510;SDS011;8368;48.772;8.754;2024-03-29T09:48:00;2.23;;;1.10;;
16510;SDS011;8368;48.772;8.754;2024-03-29T09:50:30;2.40;;;1.83;;
16510;SDS011;8368;48.772;8.754;2024-03-29T09:52:57;2.80;;;1.60;;
16510;SDS011;8368;48.772;8.754;2024-03-29T09:55:24;1.60;;;1.50;;
16510;SDS011;8368;48.772;8.754;2024-03-29T09:57:50;1.33;;;1.20;;
16510;SDS011;8368;48.772;8.754;2024-03-29T10:00:17;1.60;;;1.50;;
16510;SDS011;8368;48.772;8.754;2024-03-29T10:02:43;1.53;;;1.43;;
16510;SDS011;8368;48.772;8.754;2024-03-29T10:05:09;1.80;;;1.70;;
16510;SDS011;8368;48.772;8.754;2024-03-29T10:07:37;2.20;;;2.10;;
16510;SDS011;8368;48.772;8.754;2024-03-29T10:10:04;1.97;;;1.87;;
16510;SDS011;8368;48.772;8.754;2024-03-29T10:12:30;4.90;;;4.13;;
16510;SDS011;8368;48.772;8.754;2024-03-29T10:14:55;4.50;;;4.10;;
16510;SDS011;8368;48.772;8.754;2024-03-29T10:17:30;3.40;;;3.20;;
16510;SDS011;8368;48.772;8.754;2024-03-29T10:20:00;3.43;;;3.23;;
16510;SDS011;8368;48.772;8.754;2024-03-29T10:22:26;4.33;;;3.93;;
16510;SDS011;8368;48.772;8.754;2024-03-29T10:24:52;4.88;;;4.22;;
16510;SDS011;8368;48.772;8.754;2024-03-29T10:27:17;8.20;;;5.35;;
16510;SDS011;8368;48.772;8.754;2024-03-29T10:29:43;6.95;;;5.03;;
16510;SDS011;8368;48.772;8.754;2024-03-29T10:32:08;3.22;;;3.03;;
16510;SDS011;8368;48.772;8.754;2024-03-29T10:34:34;2.63;;;2.53;;
16510;SDS011;8368;48.772;8.754;2024-03-29T10:37:04;1.80;;;1.70;;
16510;SDS011;8368;48.772;8.754;2024-03-29T10:39:30;1.80;;;1.67;;
16510;SDS011;8368;48.772;8.754;2024-03-29T10:41:59;2.25;;;1.40;;
16510;SDS011;8368;48.772;8.754;2024-03-29T10:44:25;1.90;;;1.50;;
16510;SDS011;8368;48.772;8.754;2024-03-29T10:46:53;1.77;;;1.25;;
16510;SDS011;8368;48.772;8.754;2024-03-29T10:49:21;2.17;;;1.90;;
16510;SDS011;8368;48.772;8.754;2024-03-29T10:51:48;1.90;;;1.90;;
16510;SDS011;8368;48.772;8.754;2024-03-29T10:54:16;2.58;;;1.85;;
16510;SDS011;8368;48.772;8.754;2024-03-29T10:56:41;1.67;;;1.63;;
16510;SDS011;8368;48.772;8.754;2024-03-29T10:59:12;1.70;;;1.60;;
16510;SDS011;8368;48.772;8.754;2024-03-29T11:01:52;2.45;;;1.63;;
16510;SDS011;8368;48.772;8.754;2024-03-29T11:04:25;1.90;;;1.80;;
16510;SDS011;8368;48.772;8.754;2024-03-29T11:06:56;1.60;;;1.60;;
16510;SDS011;8368;48.772;8.754;2024-03-29T11:09:24;1.10;;;1.10;;
16510;SDS011;8368;48.772;8.754;2024-03-29T11:11:54;1.52;;;1.42;;
16510;SDS011;8368;48.772;8.754;2024-03-29T11:14:24;2.65;;;1.40;;
16510;SDS011;8368;48.772;8.754;2024-03-29T11:16:58;4.93;;;2.63;;
16510;SDS011;8368;48.772;8.754;2024-03-29T11:19:24;8.00;;;4.30;;
16510;SDS011;8368;48.772;8.754;2024-03-29T11:21:50;1.92;;;1.80;;
16510;SDS011;8368;48.772;8.754;2024-03-29T11:24:17;1.90;;;1.80;;
16510;SDS011;8368;48.772;8.754;2024-03-29T11:26:44;1.58;;;1.42;;
16510;SDS011;8368;48.772;8.754;2024-03-29T11:29:19;1.17;;;1.17;;
16510;SDS011;8368;48.772;8.754;2024-03-29T11:31:46;1.25;;;1.15;;
16510;SDS011;8368;48.772;8.754;2024-03-29T11:34:14;1.60;;;1.50;;
16510;SDS011;8368;48.772;8.754;2024-03-29T11:36:44;1.40;;;1.40;;
16510;SDS011;8368;48.772;8.754;2024-03-29T11:39:19;2.15;;;1.55;;
16510;SDS011;8368;48.772;8.754;2024-03-29T11:41:46;1.20;;;1.00;;
16510;SDS011;8368;48.772;8.754;2024-03-29T11:44:13;1.85;;;1.85;;
16510;SDS011;8368;48.772;8.754;2024-03-29T11:46:39;3.58;;;3.28;;
16510;SDS011;8368;48.772;8.754;2024-03-29T11:49:05;2.47;;;2.38;;
16510;SDS011;8368;48.772;8.754;2024-03-29T11:51:31;1.63;;;1.33;;
16510;SDS011;8368;48.772;8.754;2024-03-29T11:53:56;1.50;;;1.00;;
16510;SDS011;8368;48.772;8.754;2024-03-29T11:56:22;1.42;;;1.15;;
16510;SDS011;8368;48.772;8.754;2024-03-29T11:58:48;1.65;;;1.15;;
16510;SDS011;8368;48.772;8.754;2024-03-29T12:01:14;1.50;;;1.00;;
16510;SDS011;8368;48.772;8.754;2024-03-29T12:03:41;1.00;;;1.00;;
16510;SDS011;8368;48.772;8.754;2024-03-29T12:06:07;2.17;;;1.13;;
16510;SDS011;8368;48.772;8.754;2024-03-29T12:08:34;1.20;;;1.20;;
16510;SDS011;8368;48.772;8.754;2024-03-29T12:11:02;1.20;;;1.20;;
16510;SDS011;8368;48.772;8.754;2024-03-29T12:13:29;1.20;;;1.20;;
16510;SDS011;8368;48.772;8.754;2024-03-29T12:15:55;1.60;;;1.40;;
16510;SDS011;8368;48.772;8.754;2024-03-29T12:18:21;1.33;;;1.33;;
16510;SDS011;8368;48.772;8.754;2024-03-29T12:20:48;2.00;;;1.30;;
16510;SDS011;8368;48.772;8.754;2024-03-29T12:23:16;1.30;;;1.30;;
16510;SDS011;8368;48.772;8.754;2024-03-29T12:25:42;1.15;;;1.15;;
16510;SDS011;8368;48.772;8.754;2024-03-29T12:28:09;1.23;;;1.15;;
16510;SDS011;8368;48.772;8.754;2024-03-29T12:30:35;1.15;;;1.15;;
16510;SDS011;8368;48.772;8.754;2024-03-29T12:33:02;2.03;;;1.40;;
16510;SDS011;8368;48.772;8.754;2024-03-29T12:35:29;1.42;;;1.30;;
16510;SDS011;8368;48.772;8.754;2024-03-29T12:37:57;1.25;;;1.25;;
16510;SDS011;8368;48.772;8.754;2024-03-29T12:40:24;1.10;;;1.10;;
16510;SDS011;8368;48.772;8.754;2024-03-29T12:42:50;1.40;;;1.30;;
16510;SDS011;8368;48.772;8.754;2024-03-29T12:45:17;1.35;;;1.23;;
16510;SDS011;8368;48.772;8.754;2024-03-29T12:47:44;1.17;;;1.17;;
16510;SDS011;8368;48.772;8.754;2024-03-29T12:50:13;1.30;;;1.30;;
16510;SDS011;8368;48.772;8.754;2024-03-29T12:52:49;2.58;;;1.60;;
16510;SDS011;8368;48.772;8.754;2024-03-29T12:55:14;3.90;;;2.10;;
16510;SDS011;8368;48.772;8.754;2024-03-29T12:57:43;2.33;;;2.10;;
16510;SDS011;8368;48.772;8.754;2024-03-29T13:00:09;1.40;;;1.40;;
16510;SDS011;8368;48.772;8.754;2024-03-29T13:02:38;1.27;;;1.23;;
16510;SDS011;8368;48.772;8.754;2024-03-29T13:05:03;1.80;;;0.98;;
16510;SDS011;8368;48.772;8.754;2024-03-29T13:07:32;1.23;;;1.23;;
16510;SDS011;8368;48.772;8.754;2024-03-29T13:09:59;1.27;;;1.10;;
16510;SDS011;8368;48.772;8.754;2024-03-29T13:12:28;1.33;;;1.20;;
16510;SDS011;8368;48.772;8.754;2024-03-29T13:14:55;1.65;;;1.55;;
16510;SDS011;8368;48.772;8.754;2024-03-29T13:17:20;1.20;;;1.20;;
16510;SDS011;8368;48.772;8.754;2024-03-29T13:19:46;1.98;;;1.15;;
16510;SDS011;8368;48.772;8.754;2024-03-29T13:22:12;1.42;;;1.00;;
16510;SDS011;8368;48.772;8.754;2024-03-29T13:24:37;1.77;;;1.67;;
16510;SDS011;8368;48.772;8.754;2024-03-29T13:27:03;1.25;;;1.08;;
16510;SDS011;8368;48.772;8.754;2024-03-29T13:29:29;1.48;;;1.38;;
16510;SDS011;8368;48.772;8.754;2024-03-29T13:31:55;1.20;;;1.10;;
16510;SDS011;8368;48.772;8.754;2024-03-29T13:34:21;2.40;;;2.20;;
16510;SDS011;8368;48.772;8.754;2024-03-29T13:36:47;1.85;;;1.83;;
16510;SDS011;8368;48.772;8.754;2024-03-29T13:39:13;1.58;;;1.55;;
16510;SDS011;8368;48.772;8.754;2024-03-29T13:41:40;1.70;;;1.55;;
16510;SDS011;8368;48.772;8.754;2024-03-29T13:44:06;1.10;;;1.10;;
16510;SDS011;8368;48.772;8.754;2024-03-29T13:46:35;0.90;;;0.85;;
16510;SDS011;8368;48.772;8.754;2024-03-29T13:49:01;1.05;;;1.05;;
16510;SDS011;8368;48.772;8.754;2024-03-29T13:51:28;1.60;;;1.50;;
16510;SDS011;8368;48.772;8.754;2024-03-29T13:53:54;1.73;;;1.50;;
16510;SDS011;8368;48.772;8.754;2024-03-29T13:56:19;1.75;;;1.60;;
16510;SDS011;8368;48.772;8.754;2024-03-29T13:58:46;1.23;;;1.20;;
16510;SDS011;8368;48.772;8.754;2024-03-29T14:01:12;2.38;;;1.05;;
16510;SDS011;8368;48.772;8.754;2024-03-29T14:03:37;1.02;;;1.02;;
16510;SDS011;8368;48.772;8.754;2024-03-29T14:06:03;1.63;;;1.00;;
16510;SDS011;8368;48.772;8.754;2024-03-29T14:08:30;1.10;;;1.10;;
16510;SDS011;8368;48.772;8.754;2024-03-29T14:10:56;1.02;;;0.93;;
16510;SDS011;8368;48.772;8.754;2024-03-29T14:13:22;1.10;;;1.00;;
16510;SDS011;8368;48.772;8.754;2024-03-29T14:15:48;0.80;;;0.80;;
16510;SDS011;8368;48.772;8.754;2024-03-29T14:18:14;1.02;;;0.95;;
16510;SDS011;8368;48.772;8.754;2024-03-29T14:20:39;1.25;;;0.80;;
16510;SDS011;8368;48.772;8.754;2024-03-29T14:23:05;0.73;;;0.70;;
16510;SDS011;8368;48.772;8.754;2024-03-29T14:25:31;0.70;;;0.70;;
16510;SDS011;8368;48.772;8.754;2024-03-29T14:27:57;1.00;;;1.00;;
16510;SDS011;8368;48.772;8.754;2024-03-29T14:30:24;2.17;;;1.00;;
16510;SDS011;8368;48.772;8.754;2024-03-29T14:32:50;0.90;;;0.90;;
16510;SDS011;8368;48.772;8.754;2024-03-29T14:35:17;0.80;;;0.80;;
16510;SDS011;8368;48.772;8.754;2024-03-29T14:37:43;0.75;;;0.70;;
16510;SDS011;8368;48.772;8.754;2024-03-29T14:40:09;0.98;;;0.98;;
16510;SDS011;8368;48.772;8.754;2024-03-29T14:42:37;0.98;;;0.80;;
16510;SDS011;8368;48.772;8.754;2024-03-29T14:45:06;0.80;;;0.80;;
16510;SDS011;8368;48.772;8.754;2024-03-29T14:47:32;0.80;;;0.80;;
16510;SDS011;8368;48.772;8.754;2024-03-29T14:49:58;2.00;;;0.70;;
16510;SDS011;8368;48.772;8.754;2024-03-29T14:52:25;1.00;;;0.90;;
16510;SDS011;8368;48.772;8.754;2024-03-29T14:54:51;1.40;;;1.40;;
16510;SDS011;8368;48.772;8.754;2024-03-29T14:57:16;0.82;;;0.70;;